sensor_id;sensor_type;location;lat;lon;timestamp;P1;durP1;ratioP1;P2;durP2;ratioP2
2386;SDS011;49473;50.772;8.768;2023-02-28T00:01:05;3.47;;;2.80;;
2386;SDS011;49473;50.772;8.768;2023-02-28T00:03:33;3.23;;;2.63;;
2386;SDS011;49473;50.772;8.768;2023-02-28T00:06:00;3.00;;;2.70;;
2386;SDS011;49473;50.772;8.768;2023-02-28T00:08:28;3.90;;;3.03;;
2386;SDS011;49473;50.772;8.768;2023-02-28T00:10:54;3.80;;;3.00;;
2386;SDS011;49473;50.772;8.768;2023-02-28T00:13:21;4.03;;;3.10;;
2386;SDS011;49473;50.772;8.768;2023-02-28T00:15:57;3.20;;;2.90;;
2386;SDS011;49473;50.772;8.768;2023-02-28T00:18:25;3.13;;;2.30;;
2386;SDS011;49473;50.772;8.768;2023-02-28T00:20:53;5.57;;;3.10;;
2386;SDS011;49473;50.772;8.768;2023-02-28T00:23:20;4.20;;;2.50;;
2386;SDS011;49473;50.772;8.768;2023-02-28T00:25:47;2.70;;;2.07;;
2386;SDS011;49473;50.772;8.768;2023-02-28T00:28:14;2.27;;;2.17;;
2386;SDS011;49473;50.772;8.768;2023-02-28T00:30:41;2.83;;;2.63;;
2386;SDS011;49473;50.772;8.768;2023-02-28T00:33:07;2.43;;;2.23;;
2386;SDS011;49473;50.772;8.768;2023-02-28T00:35:34;2.87;;;2.60;;
2386;SDS011;49473;50.772;8.768;2023-02-28T00:38:02;3.17;;;2.53;;
2386;SDS011;49473;50.772;8.768;2023-02-28T00:40:29;2.83;;;2.63;;
2386;SDS011;49473;50.772;8.768;2023-02-28T00:42:56;2.60;;;2.40;;
2386;SDS011;49473;50.772;8.768;2023-02-28T00:45:22;2.70;;;2.50;;
2386;SDS011;49473;50.772;8.768;2023-02-28T00:47:49;2.77;;;2.43;;
2386;SDS011;49473;50.772;8.768;2023-02-28T00:50:16;2.73;;;2.53;;
2386;SDS011;49473;50.772;8.768;2023-02-28T00:52:43;2.97;;;2.77;;
2386;SDS011;49473;50.772;8.768;2023-02-28T00:55:11;2.90;;;2.70;;
2386;SDS011;49473;50.772;8.768;2023-02-28T00:57:38;2.50;;;2.30;;
2386;SDS011;49473;50.772;8.768;2023-02-28T01:00:05;3.30;;;3.10;;
2386;SDS011;49473;50.772;8.768;2023-02-28T01:02:33;9.20;;;2.93;;
2386;SDS011;49473;50.772;8.768;2023-02-28T01:05:00;3.47;;;3.17;;
2386;SDS011;49473;50.772;8.768;2023-02-28T01:07:27;3.27;;;2.97;;
2386;SDS011;49473;50.772;8.768;2023-02-28T01:09:54;3.83;;;3.53;;
2386;SDS011;49473;50.772;8.768;2023-02-28T01:12:22;3.30;;;3.10;;
2386;SDS011;49473;50.772;8.768;2023-02-28T01:14:48;3.70;;;3.40;;
2386;SDS011;49473;50.772;8.768;2023-02-28T01:17:15;6.30;;;3.30;;
2386;SDS011;49473;50.772;8.768;2023-02-28T01:19:42;3.10;;;2.77;;
2386;SDS011;49473;50.772;8.768;2023-02-28T01:22:09;2.90;;;2.70;;
2386;SDS011;49473;50.772;8.768;2023-02-28T01:24:36;3.37;;;3.10;;
2386;SDS011;49473;50.772;8.768;2023-02-28T01:27:03;3.23;;;2.93;;
2386;SDS011;49473;50.772;8.768;2023-02-28T01:29:31;4.03;;;3.33;;
2386;SDS011;49473;50.772;8.768;2023-02-28T01:31:59;4.53;;;3.57;;
2386;SDS011;49473;50.772;8.768;2023-02-28T01:34:25;3.07;;;2.87;;
2386;SDS011;49473;50.772;8.768;2023-02-28T01:36:52;3.63;;;3.30;;
2386;SDS011;49473;50.772;8.768;2023-02-28T01:39:19;3.57;;;3.10;;
2386;SDS011;49473;50.772;8.768;2023-02-28T01:41:46;3.30;;;3.07;;
2386;SDS011;49473;50.772;8.768;2023-02-28T01:47:26;4.53;;;3.33;;
2386;SDS011;49473;50.772;8.768;2023-02-28T01:49:54;3.20;;;3.00;;
2386;SDS011;49473;50.772;8.768;2023-02-28T01:52:22;3.80;;;3.50;;
2386;SDS011;49473;50.772;8.768;2023-02-28T01:54:51;3.43;;;3.13;;
2386;SDS011;49473;50.772;8.768;2023-02-28T01:57:20;3.90;;;3.00;;
2386;SDS011;49473;50.772;8.768;2023-02-28T01:59:50;2.90;;;2.70;;
2386;SDS011;49473;50.772;8.768;2023-02-28T02:02:21;3.50;;;3.20;;
2386;SDS011;49473;50.772;8.768;2023-02-28T02:04:51;3.03;;;2.83;;
2386;SDS011;49473;50.772;8.768;2023-02-28T02:07:21;3.23;;;3.03;;
2386;SDS011;49473;50.772;8.768;2023-02-28T02:09:49;5.70;;;3.37;;
2386;SDS011;49473;50.772;8.768;2023-02-28T02:12:19;3.20;;;2.83;;
2386;SDS011;49473;50.772;8.768;2023-02-28T02:14:58;4.37;;;3.40;;
2386;SDS011;49473;50.772;8.768;2023-02-28T02:17:38;3.37;;;3.07;;
2386;SDS011;49473;50.772;8.768;2023-02-28T02:23:19;3.30;;;3.00;;
2386;SDS011;49473;50.772;8.768;2023-02-28T02:25:56;3.20;;;3.00;;
2386;SDS011;49473;50.772;8.768;2023-02-28T02:28:36;4.67;;;3.47;;
2386;SDS011;49473;50.772;8.768;2023-02-28T02:31:18;3.60;;;3.30;;
2386;SDS011;49473;50.772;8.768;2023-02-28T02:34:18;3.20;;;3.00;;
2386;SDS011;49473;50.772;8.768;2023-02-28T02:36:53;3.20;;;2.80;;
2386;SDS011;49473;50.772;8.768;2023-02-28T02:39:30;4.00;;;3.80;;
2386;SDS011;49473;50.772;8.768;2023-02-28T02:42:03;3.40;;;3.20;;
2386;SDS011;49473;50.772;8.768;2023-02-28T02:44:38;4.30;;;3.90;;
2386;SDS011;49473;50.772;8.768;2023-02-28T02:47:10;3.23;;;3.00;;
2386;SDS011;49473;50.772;8.768;2023-02-28T02:49:43;3.00;;;2.80;;
2386;SDS011;49473;50.772;8.768;2023-02-28T02:52:15;3.67;;;3.37;;
2386;SDS011;49473;50.772;8.768;2023-02-28T02:54:46;5.43;;;3.90;;
2386;SDS011;49473;50.772;8.768;2023-02-28T02:57:15;3.90;;;3.30;;
2386;SDS011;49473;50.772;8.768;2023-02-28T02:59:48;5.40;;;3.80;;
2386;SDS011;49473;50.772;8.768;2023-02-28T03:02:18;5.30;;;3.70;;
2386;SDS011;49473;50.772;8.768;2023-02-28T03:04:50;3.80;;;3.50;;
2386;SDS011;49473;50.772;8.768;2023-02-28T03:07:19;4.53;;;3.97;;
2386;SDS011;49473;50.772;8.768;2023-02-28T03:09:50;4.10;;;3.70;;
2386;SDS011;49473;50.772;8.768;2023-02-28T03:12:18;3.63;;;3.33;;
2386;SDS011;49473;50.772;8.768;2023-02-28T03:14:55;4.53;;;3.77;;
2386;SDS011;49473;50.772;8.768;2023-02-28T03:20:26;4.10;;;3.70;;
2386;SDS011;49473;50.772;8.768;2023-02-28T03:23:03;3.30;;;3.00;;
2386;SDS011;49473;50.772;8.768;2023-02-28T03:25:45;3.40;;;3.10;;
2386;SDS011;49473;50.772;8.768;2023-02-28T03:28:21;3.90;;;3.37;;
2386;SDS011;49473;50.772;8.768;2023-02-28T03:30:57;4.30;;;3.90;;
2386;SDS011;49473;50.772;8.768;2023-02-28T03:33:28;3.73;;;3.30;;
2386;SDS011;49473;50.772;8.768;2023-02-28T03:36:01;6.07;;;3.97;;
2386;SDS011;49473;50.772;8.768;2023-02-28T03:38:31;3.13;;;2.83;;
2386;SDS011;49473;50.772;8.768;2023-02-28T03:41:04;3.77;;;3.47;;
2386;SDS011;49473;50.772;8.768;2023-02-28T03:43:35;3.00;;;2.80;;
2386;SDS011;49473;50.772;8.768;2023-02-28T03:46:07;3.63;;;3.20;;
2386;SDS011;49473;50.772;8.768;2023-02-28T03:48:39;5.77;;;3.47;;
2386;SDS011;49473;50.772;8.768;2023-02-28T03:51:12;3.40;;;2.80;;
2386;SDS011;49473;50.772;8.768;2023-02-28T03:53:44;3.23;;;2.90;;
2386;SDS011;49473;50.772;8.768;2023-02-28T03:56:17;3.10;;;2.90;;
2386;SDS011;49473;50.772;8.768;2023-02-28T03:58:47;2.70;;;2.50;;
2386;SDS011;49473;50.772;8.768;2023-02-28T04:01:20;3.90;;;2.70;;
2386;SDS011;49473;50.772;8.768;2023-02-28T04:03:51;2.50;;;2.30;;
2386;SDS011;49473;50.772;8.768;2023-02-28T04:06:20;3.37;;;3.00;;
2386;SDS011;49473;50.772;8.768;2023-02-28T04:08:48;3.47;;;3.17;;
2386;SDS011;49473;50.772;8.768;2023-02-28T04:11:17;2.70;;;2.50;;
2386;SDS011;49473;50.772;8.768;2023-02-28T04:13:47;3.40;;;3.10;;
2386;SDS011;49473;50.772;8.768;2023-02-28T04:16:14;5.03;;;3.47;;
2386;SDS011;49473;50.772;8.768;2023-02-28T04:18:40;2.83;;;2.60;;
2386;SDS011;49473;50.772;8.768;2023-02-28T04:21:08;3.00;;;2.80;;
2386;SDS011;49473;50.772;8.768;2023-02-28T04:23:37;3.43;;;3.13;;
2386;SDS011;49473;50.772;8.768;2023-02-28T04:26:04;4.27;;;2.90;;
2386;SDS011;49473;50.772;8.768;2023-02-28T04:28:31;8.73;;;2.60;;
2386;SDS011;49473;50.772;8.768;2023-02-28T04:30:59;3.10;;;2.80;;
2386;SDS011;49473;50.772;8.768;2023-02-28T04:33:28;3.70;;;2.60;;
2386;SDS011;49473;50.772;8.768;2023-02-28T04:36:00;3.23;;;2.93;;
2386;SDS011;49473;50.772;8.768;2023-02-28T04:38:28;3.30;;;2.73;;
2386;SDS011;49473;50.772;8.768;2023-02-28T04:41:00;2.83;;;2.57;;
2386;SDS011;49473;50.772;8.768;2023-02-28T04:43:27;2.73;;;2.53;;
2386;SDS011;49473;50.772;8.768;2023-02-28T04:45:54;2.30;;;2.20;;
2386;SDS011;49473;50.772;8.768;2023-02-28T04:48:22;3.07;;;2.77;;
2386;SDS011;49473;50.772;8.768;2023-02-28T04:50:49;4.17;;;2.63;;
2386;SDS011;49473;50.772;8.768;2023-02-28T04:53:16;2.40;;;2.20;;
2386;SDS011;49473;50.772;8.768;2023-02-28T04:55:43;3.10;;;2.80;;
2386;SDS011;49473;50.772;8.768;2023-02-28T04:58:11;2.57;;;2.37;;
2386;SDS011;49473;50.772;8.768;2023-02-28T05:00:38;2.97;;;2.67;;
2386;SDS011;49473;50.772;8.768;2023-02-28T05:03:05;2.83;;;2.63;;
2386;SDS011;49473;50.772;8.768;2023-02-28T05:05:31;3.33;;;3.03;;
2386;SDS011;49473;50.772;8.768;2023-02-28T05:07:58;3.47;;;3.17;;
2386;SDS011;49473;50.772;8.768;2023-02-28T05:10:26;4.40;;;3.33;;
2386;SDS011;49473;50.772;8.768;2023-02-28T05:12:53;3.07;;;2.87;;
2386;SDS011;49473;50.772;8.768;2023-02-28T05:15:22;3.50;;;3.20;;
2386;SDS011;49473;50.772;8.768;2023-02-28T05:17:49;3.57;;;2.80;;
2386;SDS011;49473;50.772;8.768;2023-02-28T05:20:16;2.77;;;2.40;;
2386;SDS011;49473;50.772;8.768;2023-02-28T05:22:43;3.00;;;2.80;;
2386;SDS011;49473;50.772;8.768;2023-02-28T05:25:10;4.30;;;3.10;;
2386;SDS011;49473;50.772;8.768;2023-02-28T05:27:41;3.27;;;2.80;;
2386;SDS011;49473;50.772;8.768;2023-02-28T05:30:08;3.53;;;2.93;;
2386;SDS011;49473;50.772;8.768;2023-02-28T05:32:37;3.60;;;2.53;;
2386;SDS011;49473;50.772;8.768;2023-02-28T05:35:08;2.67;;;2.27;;
2386;SDS011;49473;50.772;8.768;2023-02-28T05:37:36;2.50;;;2.30;;
2386;SDS011;49473;50.772;8.768;2023-02-28T05:40:03;2.90;;;2.30;;
2386;SDS011;49473;50.772;8.768;2023-02-28T05:42:32;2.10;;;2.00;;
2386;SDS011;49473;50.772;8.768;2023-02-28T05:44:59;2.40;;;2.20;;
2386;SDS011;49473;50.772;8.768;2023-02-28T05:47:25;2.23;;;2.10;;
2386;SDS011;49473;50.772;8.768;2023-02-28T05:49:53;2.60;;;2.40;;
2386;SDS011;49473;50.772;8.768;2023-02-28T05:52:20;3.90;;;2.43;;
2386;SDS011;49473;50.772;8.768;2023-02-28T05:54:47;2.70;;;1.87;;
2386;SDS011;49473;50.772;8.768;2023-02-28T05:57:14;2.30;;;2.10;;
2386;SDS011;49473;50.772;8.768;2023-02-28T05:59:41;3.00;;;2.13;;
2386;SDS011;49473;50.772;8.768;2023-02-28T06:02:08;3.00;;;2.30;;
2386;SDS011;49473;50.772;8.768;2023-02-28T06:04:38;1.80;;;1.70;;
2386;SDS011;49473;50.772;8.768;2023-02-28T06:07:07;2.30;;;2.10;;
2386;SDS011;49473;50.772;8.768;2023-02-28T06:09:34;2.90;;;2.60;;
2386;SDS011;49473;50.772;8.768;2023-02-28T06:12:02;2.33;;;2.10;;
2386;SDS011;49473;50.772;8.768;2023-02-28T06:14:30;3.93;;;2.20;;
2386;SDS011;49473;50.772;8.768;2023-02-28T06:16:58;2.60;;;2.40;;
2386;SDS011;49473;50.772;8.768;2023-02-28T06:19:25;3.43;;;3.03;;
2386;SDS011;49473;50.772;8.768;2023-02-28T06:21:52;2.10;;;2.00;;
2386;SDS011;49473;50.772;8.768;2023-02-28T06:24:21;1.77;;;1.67;;
2386;SDS011;49473;50.772;8.768;2023-02-28T06:26:49;2.07;;;1.97;;
2386;SDS011;49473;50.772;8.768;2023-02-28T06:29:16;2.03;;;1.93;;
2386;SDS011;49473;50.772;8.768;2023-02-28T06:31:43;3.23;;;2.17;;
2386;SDS011;49473;50.772;8.768;2023-02-28T06:34:10;2.73;;;2.53;;
2386;SDS011;49473;50.772;8.768;2023-02-28T06:36:37;2.30;;;2.10;;
2386;SDS011;49473;50.772;8.768;2023-02-28T06:39:05;2.23;;;2.03;;
2386;SDS011;49473;50.772;8.768;2023-02-28T06:41:34;2.73;;;2.53;;
2386;SDS011;49473;50.772;8.768;2023-02-28T06:44:02;2.60;;;2.40;;
2386;SDS011;49473;50.772;8.768;2023-02-28T06:46:30;3.50;;;2.30;;
2386;SDS011;49473;50.772;8.768;2023-02-28T06:48:57;2.57;;;2.33;;
2386;SDS011;49473;50.772;8.768;2023-02-28T06:51:24;2.97;;;2.30;;
2386;SDS011;49473;50.772;8.768;2023-02-28T06:53:52;2.30;;;2.10;;
2386;SDS011;49473;50.772;8.768;2023-02-28T06:56:19;2.50;;;2.30;;
2386;SDS011;49473;50.772;8.768;2023-02-28T06:58:48;3.60;;;3.17;;
2386;SDS011;49473;50.772;8.768;2023-02-28T07:01:15;2.50;;;2.30;;
2386;SDS011;49473;50.772;8.768;2023-02-28T07:03:43;2.53;;;2.33;;
2386;SDS011;49473;50.772;8.768;2023-02-28T07:06:10;2.30;;;2.10;;
2386;SDS011;49473;50.772;8.768;2023-02-28T07:08:37;2.27;;;2.10;;
2386;SDS011;49473;50.772;8.768;2023-02-28T07:11:05;2.03;;;1.90;;
2386;SDS011;49473;50.772;8.768;2023-02-28T07:13:31;8.10;;;5.17;;
2386;SDS011;49473;50.772;8.768;2023-02-28T07:16:00;2.83;;;2.43;;
2386;SDS011;49473;50.772;8.768;2023-02-28T07:18:29;4.20;;;2.73;;
2386;SDS011;49473;50.772;8.768;2023-02-28T07:20:56;2.17;;;2.00;;
2386;SDS011;49473;50.772;8.768;2023-02-28T07:23:23;2.90;;;2.70;;
2386;SDS011;49473;50.772;8.768;2023-02-28T07:25:50;2.27;;;2.07;;
2386;SDS011;49473;50.772;8.768;2023-02-28T07:28:18;3.47;;;2.43;;
2386;SDS011;49473;50.772;8.768;2023-02-28T07:30:45;2.33;;;2.13;;
2386;SDS011;49473;50.772;8.768;2023-02-28T07:33:14;2.20;;;2.00;;
2386;SDS011;49473;50.772;8.768;2023-02-28T07:35:40;10.67;;;6.13;;
2386;SDS011;49473;50.772;8.768;2023-02-28T07:38:07;3.47;;;3.10;;
2386;SDS011;49473;50.772;8.768;2023-02-28T07:40:34;19.90;;;8.70;;
2386;SDS011;49473;50.772;8.768;2023-02-28T07:43:02;16.00;;;6.70;;
2386;SDS011;49473;50.772;8.768;2023-02-28T07:45:29;2.53;;;2.33;;
2386;SDS011;49473;50.772;8.768;2023-02-28T07:47:59;2.93;;;2.47;;
2386;SDS011;49473;50.772;8.768;2023-02-28T07:50:27;3.37;;;3.17;;
2386;SDS011;49473;50.772;8.768;2023-02-28T07:52:55;2.70;;;2.50;;
2386;SDS011;49473;50.772;8.768;2023-02-28T07:55:22;2.53;;;2.33;;
2386;SDS011;49473;50.772;8.768;2023-02-28T07:57:49;2.63;;;2.43;;
2386;SDS011;49473;50.772;8.768;2023-02-28T08:00:16;3.10;;;2.90;;
2386;SDS011;49473;50.772;8.768;2023-02-28T08:02:43;3.10;;;2.80;;
2386;SDS011;49473;50.772;8.768;2023-02-28T08:05:10;2.83;;;2.63;;
2386;SDS011;49473;50.772;8.768;2023-02-28T08:07:38;2.97;;;2.67;;
2386;SDS011;49473;50.772;8.768;2023-02-28T08:10:05;2.90;;;2.70;;
2386;SDS011;49473;50.772;8.768;2023-02-28T08:12:34;3.73;;;3.40;;
2386;SDS011;49473;50.772;8.768;2023-02-28T08:15:01;2.80;;;2.60;;
2386;SDS011;49473;50.772;8.768;2023-02-28T08:17:28;3.20;;;2.90;;
2386;SDS011;49473;50.772;8.768;2023-02-28T08:19:55;4.00;;;3.63;;
2386;SDS011;49473;50.772;8.768;2023-02-28T08:22:22;3.27;;;2.67;;
2386;SDS011;49473;50.772;8.768;2023-02-28T08:24:50;3.23;;;3.03;;
2386;SDS011;49473;50.772;8.768;2023-02-28T08:27:16;2.80;;;2.60;;
2386;SDS011;49473;50.772;8.768;2023-02-28T08:29:43;9.03;;;6.50;;
2386;SDS011;49473;50.772;8.768;2023-02-28T08:32:10;2.20;;;2.10;;
2386;SDS011;49473;50.772;8.768;2023-02-28T08:34:38;2.87;;;2.57;;
2386;SDS011;49473;50.772;8.768;2023-02-28T08:37:05;2.63;;;2.43;;
2386;SDS011;49473;50.772;8.768;2023-02-28T08:39:33;2.77;;;2.57;;
2386;SDS011;49473;50.772;8.768;2023-02-28T08:42:01;3.13;;;2.93;;
2386;SDS011;49473;50.772;8.768;2023-02-28T08:44:28;2.50;;;2.40;;
2386;SDS011;49473;50.772;8.768;2023-02-28T08:46:55;3.40;;;3.10;;
2386;SDS011;49473;50.772;8.768;2023-02-28T08:49:22;3.00;;;2.80;;
2386;SDS011;49473;50.772;8.768;2023-02-28T08:51:48;3.50;;;2.80;;
2386;SDS011;49473;50.772;8.768;2023-02-28T08:54:15;2.60;;;2.40;;
2386;SDS011;49473;50.772;8.768;2023-02-28T08:56:44;3.30;;;2.93;;
2386;SDS011;49473;50.772;8.768;2023-02-28T08:59:12;3.07;;;2.80;;
2386;SDS011;49473;50.772;8.768;2023-02-28T09:01:40;3.00;;;2.77;;
2386;SDS011;49473;50.772;8.768;2023-02-28T09:04:08;3.23;;;3.00;;
2386;SDS011;49473;50.772;8.768;2023-02-28T09:06:36;3.07;;;2.87;;
2386;SDS011;49473;50.772;8.768;2023-02-28T09:09:03;3.00;;;2.73;;
2386;SDS011;49473;50.772;8.768;2023-02-28T09:11:32;3.03;;;2.83;;
2386;SDS011;49473;50.772;8.768;2023-02-28T09:13:59;3.00;;;2.80;;
2386;SDS011;49473;50.772;8.768;2023-02-28T09:16:29;3.30;;;3.10;;
2386;SDS011;49473;50.772;8.768;2023-02-28T09:18:57;3.00;;;2.80;;
2386;SDS011;49473;50.772;8.768;2023-02-28T09:21:24;2.67;;;2.57;;
2386;SDS011;49473;50.772;8.768;2023-02-28T09:23:51;3.00;;;2.70;;
2386;SDS011;49473;50.772;8.768;2023-02-28T09:26:18;3.13;;;2.73;;
2386;SDS011;49473;50.772;8.768;2023-02-28T09:28:47;3.00;;;2.80;;
2386;SDS011;49473;50.772;8.768;2023-02-28T09:31:15;2.60;;;2.40;;
2386;SDS011;49473;50.772;8.768;2023-02-28T09:33:47;3.13;;;2.93;;
2386;SDS011;49473;50.772;8.768;2023-02-28T09:36:14;3.10;;;2.80;;
2386;SDS011;49473;50.772;8.768;2023-02-28T09:38:40;3.17;;;2.93;;
2386;SDS011;49473;50.772;8.768;2023-02-28T09:41:10;3.60;;;3.30;;
2386;SDS011;49473;50.772;8.768;2023-02-28T09:43:40;3.27;;;3.03;;
2386;SDS011;49473;50.772;8.768;2023-02-28T09:46:12;4.50;;;2.77;;
2386;SDS011;49473;50.772;8.768;2023-02-28T09:48:50;3.87;;;3.47;;
2386;SDS011;49473;50.772;8.768;2023-02-28T09:51:25;3.20;;;2.90;;
2386;SDS011;49473;50.772;8.768;2023-02-28T09:53:59;3.13;;;2.93;;
2386;SDS011;49473;50.772;8.768;2023-02-28T09:56:28;4.80;;;3.17;;
2386;SDS011;49473;50.772;8.768;2023-02-28T09:59:00;3.37;;;3.10;;
2386;SDS011;49473;50.772;8.768;2023-02-28T10:01:31;3.40;;;2.60;;
2386;SDS011;49473;50.772;8.768;2023-02-28T10:04:05;5.50;;;3.00;;
2386;SDS011;49473;50.772;8.768;2023-02-28T10:06:43;3.10;;;2.80;;
2386;SDS011;49473;50.772;8.768;2023-02-28T10:09:13;3.93;;;3.00;;
2386;SDS011;49473;50.772;8.768;2023-02-28T10:11:45;2.80;;;2.60;;
2386;SDS011;49473;50.772;8.768;2023-02-28T10:14:15;2.60;;;2.40;;
2386;SDS011;49473;50.772;8.768;2023-02-28T10:16:44;2.63;;;2.43;;
2386;SDS011;49473;50.772;8.768;2023-02-28T10:19:19;2.80;;;2.60;;
2386;SDS011;49473;50.772;8.768;2023-02-28T10:21:50;2.93;;;2.60;;
2386;SDS011;49473;50.772;8.768;2023-02-28T10:24:23;2.80;;;2.60;;
2386;SDS011;49473;50.772;8.768;2023-02-28T10:26:56;3.20;;;2.90;;
2386;SDS011;49473;50.772;8.768;2023-02-28T10:29:26;3.17;;;2.87;;
2386;SDS011;49473;50.772;8.768;2023-02-28T10:31:54;3.53;;;3.23;;
2386;SDS011;49473;50.772;8.768;2023-02-28T10:34:23;3.60;;;3.30;;
2386;SDS011;49473;50.772;8.768;2023-02-28T10:36:50;3.23;;;3.03;;
2386;SDS011;49473;50.772;8.768;2023-02-28T10:39:34;3.47;;;3.20;;
2386;SDS011;49473;50.772;8.768;2023-02-28T10:42:05;3.30;;;3.00;;
2386;SDS011;49473;50.772;8.768;2023-02-28T10:44:46;3.50;;;3.20;;
2386;SDS011;49473;50.772;8.768;2023-02-28T10:47:14;2.90;;;2.70;;
2386;SDS011;49473;50.772;8.768;2023-02-28T10:49:48;3.13;;;2.93;;
2386;SDS011;49473;50.772;8.768;2023-02-28T10:52:32;3.03;;;2.83;;
2386;SDS011;49473;50.772;8.768;2023-02-28T10:55:15;3.90;;;3.60;;
2386;SDS011;49473;50.772;8.768;2023-02-28T10:57:46;3.90;;;3.70;;
2386;SDS011;49473;50.772;8.768;2023-02-28T11:00:14;5.43;;;5.00;;
2386;SDS011;49473;50.772;8.768;2023-02-28T11:02:43;3.30;;;3.10;;
2386;SDS011;49473;50.772;8.768;2023-02-28T11:05:23;3.73;;;3.43;;
2386;SDS011;49473;50.772;8.768;2023-02-28T11:07:56;4.13;;;3.83;;
2386;SDS011;49473;50.772;8.768;2023-02-28T11:10:26;4.30;;;3.93;;
2386;SDS011;49473;50.772;8.768;2023-02-28T11:12:57;3.83;;;3.60;;
2386;SDS011;49473;50.772;8.768;2023-02-28T11:15:25;4.07;;;3.63;;
2386;SDS011;49473;50.772;8.768;2023-02-28T11:17:53;3.63;;;3.40;;
2386;SDS011;49473;50.772;8.768;2023-02-28T11:20:24;4.53;;;4.13;;
2386;SDS011;49473;50.772;8.768;2023-02-28T11:22:53;4.07;;;3.77;;
2386;SDS011;49473;50.772;8.768;2023-02-28T11:25:22;7.53;;;6.73;;
2386;SDS011;49473;50.772;8.768;2023-02-28T11:27:52;7.90;;;6.63;;
2386;SDS011;49473;50.772;8.768;2023-02-28T11:30:24;5.83;;;5.23;;
2386;SDS011;49473;50.772;8.768;2023-02-28T11:32:56;4.47;;;4.07;;
2386;SDS011;49473;50.772;8.768;2023-02-28T11:35:26;4.80;;;3.93;;
2386;SDS011;49473;50.772;8.768;2023-02-28T11:37:56;4.07;;;3.67;;
2386;SDS011;49473;50.772;8.768;2023-02-28T11:40:25;11.13;;;5.90;;
2386;SDS011;49473;50.772;8.768;2023-02-28T11:43:00;5.67;;;5.20;;
2386;SDS011;49473;50.772;8.768;2023-02-28T11:45:48;14.80;;;9.30;;
2386;SDS011;49473;50.772;8.768;2023-02-28T11:48:25;5.13;;;4.30;;
2386;SDS011;49473;50.772;8.768;2023-02-28T11:51:03;5.47;;;4.80;;
2386;SDS011;49473;50.772;8.768;2023-02-28T11:56:37;5.87;;;5.33;;
2386;SDS011;49473;50.772;8.768;2023-02-28T11:59:27;5.30;;;4.80;;
2386;SDS011;49473;50.772;8.768;2023-02-28T12:02:05;4.30;;;4.00;;
2386;SDS011;49473;50.772;8.768;2023-02-28T12:04:48;4.70;;;4.40;;
2386;SDS011;49473;50.772;8.768;2023-02-28T12:07:27;4.77;;;4.23;;
2386;SDS011;49473;50.772;8.768;2023-02-28T12:10:01;5.03;;;4.63;;
2386;SDS011;49473;50.772;8.768;2023-02-28T12:12:38;4.60;;;4.10;;
2386;SDS011;49473;50.772;8.768;2023-02-28T12:15:16;6.53;;;5.83;;
2386;SDS011;49473;50.772;8.768;2023-02-28T12:18:08;4.47;;;4.07;;
2386;SDS011;49473;50.772;8.768;2023-02-28T12:20:44;5.50;;;5.00;;
2386;SDS011;49473;50.772;8.768;2023-02-28T12:23:21;4.43;;;4.03;;
2386;SDS011;49473;50.772;8.768;2023-02-28T12:26:04;4.50;;;4.10;;
2386;SDS011;49473;50.772;8.768;2023-02-28T12:28:40;4.20;;;3.87;;
2386;SDS011;49473;50.772;8.768;2023-02-28T12:31:09;4.47;;;4.07;;
2386;SDS011;49473;50.772;8.768;2023-02-28T12:33:45;4.17;;;3.87;;
2386;SDS011;49473;50.772;8.768;2023-02-28T12:36:16;4.17;;;3.87;;
2386;SDS011;49473;50.772;8.768;2023-02-28T12:38:48;5.13;;;4.70;;
2386;SDS011;49473;50.772;8.768;2023-02-28T12:41:19;4.43;;;4.07;;
2386;SDS011;49473;50.772;8.768;2023-02-28T12:43:57;5.60;;;3.63;;
2386;SDS011;49473;50.772;8.768;2023-02-28T12:46:28;3.40;;;3.10;;
2386;SDS011;49473;50.772;8.768;2023-02-28T12:49:00;4.13;;;3.83;;
2386;SDS011;49473;50.772;8.768;2023-02-28T12:51:32;4.23;;;3.93;;
2386;SDS011;49473;50.772;8.768;2023-02-28T12:54:04;4.57;;;4.17;;
2386;SDS011;49473;50.772;8.768;2023-02-28T12:56:40;4.03;;;3.73;;
2386;SDS011;49473;50.772;8.768;2023-02-28T12:59:13;4.40;;;4.07;;
2386;SDS011;49473;50.772;8.768;2023-02-28T13:04:55;4.50;;;4.10;;
2386;SDS011;49473;50.772;8.768;2023-02-28T13:07:36;4.20;;;3.90;;
2386;SDS011;49473;50.772;8.768;2023-02-28T13:10:16;4.67;;;4.27;;
2386;SDS011;49473;50.772;8.768;2023-02-28T13:12:48;6.63;;;4.67;;
2386;SDS011;49473;50.772;8.768;2023-02-28T13:15:17;4.43;;;4.13;;
2386;SDS011;49473;50.772;8.768;2023-02-28T13:17:49;4.27;;;4.00;;
2386;SDS011;49473;50.772;8.768;2023-02-28T13:20:18;5.40;;;5.03;;
2386;SDS011;49473;50.772;8.768;2023-02-28T13:22:47;4.40;;;4.00;;
2386;SDS011;49473;50.772;8.768;2023-02-28T13:34:33;4.20;;;3.90;;
2386;SDS011;49473;50.772;8.768;2023-02-28T13:40:06;4.80;;;4.50;;
2386;SDS011;49473;50.772;8.768;2023-02-28T13:42:55;6.20;;;4.53;;
2386;SDS011;49473;50.772;8.768;2023-02-28T13:45:26;4.83;;;4.43;;
2386;SDS011;49473;50.772;8.768;2023-02-28T13:47:56;5.00;;;4.57;;
2386;SDS011;49473;50.772;8.768;2023-02-28T13:50:30;5.10;;;4.20;;
2386;SDS011;49473;50.772;8.768;2023-02-28T13:56:19;4.60;;;4.30;;
2386;SDS011;49473;50.772;8.768;2023-02-28T13:59:12;5.70;;;5.10;;
2386;SDS011;49473;50.772;8.768;2023-02-28T14:01:55;4.73;;;4.37;;
2386;SDS011;49473;50.772;8.768;2023-02-28T14:07:27;5.20;;;4.63;;
2386;SDS011;49473;50.772;8.768;2023-02-28T14:09:59;4.43;;;4.03;;
2386;SDS011;49473;50.772;8.768;2023-02-28T14:18:05;4.33;;;4.03;;
2386;SDS011;49473;50.772;8.768;2023-02-28T14:20:41;4.60;;;4.30;;
2386;SDS011;49473;50.772;8.768;2023-02-28T14:23:10;4.40;;;4.10;;
2386;SDS011;49473;50.772;8.768;2023-02-28T14:25:43;4.80;;;4.30;;
2386;SDS011;49473;50.772;8.768;2023-02-28T14:28:21;5.00;;;4.60;;
2386;SDS011;49473;50.772;8.768;2023-02-28T14:31:05;4.63;;;4.30;;
2386;SDS011;49473;50.772;8.768;2023-02-28T14:33:45;5.50;;;5.00;;
2386;SDS011;49473;50.772;8.768;2023-02-28T14:36:26;4.93;;;4.53;;
2386;SDS011;49473;50.772;8.768;2023-02-28T14:38:57;6.30;;;4.40;;
2386;SDS011;49473;50.772;8.768;2023-02-28T14:41:28;4.97;;;4.57;;
2386;SDS011;49473;50.772;8.768;2023-02-28T14:43:57;4.53;;;4.13;;
2386;SDS011;49473;50.772;8.768;2023-02-28T14:46:28;5.10;;;4.70;;
2386;SDS011;49473;50.772;8.768;2023-02-28T14:49:01;4.50;;;3.70;;
2386;SDS011;49473;50.772;8.768;2023-02-28T14:51:29;3.90;;;3.60;;
2386;SDS011;49473;50.772;8.768;2023-02-28T14:53:58;5.17;;;4.67;;
2386;SDS011;49473;50.772;8.768;2023-02-28T14:56:27;5.10;;;4.60;;
2386;SDS011;49473;50.772;8.768;2023-02-28T14:58:58;4.80;;;4.40;;
2386;SDS011;49473;50.772;8.768;2023-02-28T15:01:27;4.90;;;4.50;;
2386;SDS011;49473;50.772;8.768;2023-02-28T15:03:57;4.57;;;4.17;;
2386;SDS011;49473;50.772;8.768;2023-02-28T15:06:28;4.40;;;4.00;;
2386;SDS011;49473;50.772;8.768;2023-02-28T15:09:09;4.50;;;3.90;;
2386;SDS011;49473;50.772;8.768;2023-02-28T15:11:38;5.03;;;4.57;;
2386;SDS011;49473;50.772;8.768;2023-02-28T15:14:05;5.03;;;4.30;;
2386;SDS011;49473;50.772;8.768;2023-02-28T15:16:35;7.33;;;4.40;;
2386;SDS011;49473;50.772;8.768;2023-02-28T15:19:05;4.60;;;4.20;;
2386;SDS011;49473;50.772;8.768;2023-02-28T15:21:38;4.23;;;3.83;;
2386;SDS011;49473;50.772;8.768;2023-02-28T15:24:08;5.93;;;3.70;;
2386;SDS011;49473;50.772;8.768;2023-02-28T15:26:41;5.13;;;4.67;;
2386;SDS011;49473;50.772;8.768;2023-02-28T15:29:12;4.60;;;4.30;;
2386;SDS011;49473;50.772;8.768;2023-02-28T15:31:44;4.77;;;4.37;;
2386;SDS011;49473;50.772;8.768;2023-02-28T15:34:15;4.80;;;4.23;;
2386;SDS011;49473;50.772;8.768;2023-02-28T15:36:46;6.77;;;5.63;;
2386;SDS011;49473;50.772;8.768;2023-02-28T15:39:20;5.13;;;4.30;;
2386;SDS011;49473;50.772;8.768;2023-02-28T15:41:48;6.57;;;5.83;;
2386;SDS011;49473;50.772;8.768;2023-02-28T15:44:25;6.67;;;5.93;;
2386;SDS011;49473;50.772;8.768;2023-02-28T15:46:58;4.40;;;4.07;;
2386;SDS011;49473;50.772;8.768;2023-02-28T15:49:27;5.93;;;4.20;;
2386;SDS011;49473;50.772;8.768;2023-02-28T15:51:56;5.37;;;4.90;;
2386;SDS011;49473;50.772;8.768;2023-02-28T15:54:27;4.60;;;4.20;;
2386;SDS011;49473;50.772;8.768;2023-02-28T15:56:56;6.33;;;4.43;;
2386;SDS011;49473;50.772;8.768;2023-02-28T15:59:26;6.43;;;4.20;;